sensor_id;sensor_type;location;lat;lon;timestamp;pressure;altitude;pressure_sealevel;temperature;humidity
14383;BME280;7275;50.328;8.720;2023-04-24T00:02:24;98495.34;;;16.65;47.10
14383;BME280;7275;50.328;8.720;2023-04-24T00:04:52;98498.16;;;16.63;46.89
14383;BME280;7275;50.328;8.720;2023-04-24T00:07:21;98499.25;;;16.61;47.08
14383;BME280;7275;50.328;8.720;2023-04-24T00:09:49;98490.66;;;16.57;47.06
14383;BME280;7275;50.328;8.720;2023-04-24T00:12:16;98493.53;;;16.54;47.20
14383;BME280;7275;50.328;8.720;2023-04-24T00:14:44;98494.53;;;16.53;47.25
14383;BME280;7275;50.328;8.720;2023-04-24T00:17:11;98492.81;;;16.52;47.35
14383;BME280;7275;50.328;8.720;2023-04-24T00:19:39;98490.88;;;16.54;47.57
14383;BME280;7275;50.328;8.720;2023-04-24T00:22:07;98492.72;;;16.54;47.56
14383;BME280;7275;50.328;8.720;2023-04-24T00:24:36;98488.69;;;16.59;47.44
14383;BME280;7275;50.328;8.720;2023-04-24T00:27:03;98488.69;;;16.59;47.79
14383;BME280;7275;50.328;8.720;2023-04-24T00:29:31;98492.94;;;16.62;47.90
14383;BME280;7275;50.328;8.720;2023-04-24T00:31:58;98486.38;;;16.66;47.80
14383;BME280;7275;50.328;8.720;2023-04-24T00:34:26;98480.69;;;16.70;47.76
14383;BME280;7275;50.328;8.720;2023-04-24T00:36:53;98480.41;;;16.73;47.71
14383;BME280;7275;50.328;8.720;2023-04-24T00:39:21;98483.44;;;16.80;47.70
14383;BME280;7275;50.328;8.720;2023-04-24T00:41:50;98475.78;;;16.87;47.69
14383;BME280;7275;50.328;8.720;2023-04-24T00:44:19;98469.94;;;16.93;47.50
14383;BME280;7275;50.328;8.720;2023-04-24T00:46:47;98475.59;;;16.99;47.53
14383;BME280;7275;50.328;8.720;2023-04-24T00:49:18;98470.75;;;17.04;47.54
14383;BME280;7275;50.328;8.720;2023-04-24T00:51:45;98471.31;;;17.08;47.61
14383;BME280;7275;50.328;8.720;2023-04-24T00:54:13;98475.31;;;17.13;47.31
14383;BME280;7275;50.328;8.720;2023-04-24T00:56:41;98465.09;;;17.18;47.51
14383;BME280;7275;50.328;8.720;2023-04-24T00:59:11;98456.38;;;17.16;47.43
14383;BME280;7275;50.328;8.720;2023-04-24T01:01:39;98456.69;;;17.23;47.57
14383;BME280;7275;50.328;8.720;2023-04-24T01:04:09;98438.38;;;17.18;47.57
14383;BME280;7275;50.328;8.720;2023-04-24T01:06:38;98443.22;;;17.24;47.43
14383;BME280;7275;50.328;8.720;2023-04-24T01:09:07;98452.28;;;17.33;47.47
14383;BME280;7275;50.328;8.720;2023-04-24T01:11:35;98445.94;;;17.34;47.48
14383;BME280;7275;50.328;8.720;2023-04-24T01:14:03;98454.81;;;17.34;47.56
14383;BME280;7275;50.328;8.720;2023-04-24T01:16:32;98447.91;;;17.32;47.57
14383;BME280;7275;50.328;8.720;2023-04-24T01:19:00;98439.31;;;17.28;47.61
14383;BME280;7275;50.328;8.720;2023-04-24T01:21:29;98439.69;;;17.24;47.99
14383;BME280;7275;50.328;8.720;2023-04-24T01:23:58;98440.69;;;17.23;47.83
14383;BME280;7275;50.328;8.720;2023-04-24T01:26:26;98444.44;;;17.20;47.76
14383;BME280;7275;50.328;8.720;2023-04-24T01:28:54;98440.06;;;17.19;47.94
14383;BME280;7275;50.328;8.720;2023-04-24T01:31:21;98435.44;;;17.21;48.11
14383;BME280;7275;50.328;8.720;2023-04-24T01:33:49;98437.16;;;17.22;47.82
14383;BME280;7275;50.328;8.720;2023-04-24T01:36:18;98433.63;;;17.22;48.05
14383;BME280;7275;50.328;8.720;2023-04-24T01:38:46;98437.28;;;17.21;47.95
14383;BME280;7275;50.328;8.720;2023-04-24T01:41:15;98437.41;;;17.19;48.07
14383;BME280;7275;50.328;8.720;2023-04-24T01:43:42;98433.63;;;17.22;47.87
14383;BME280;7275;50.328;8.720;2023-04-24T01:46:10;98431.81;;;17.22;48.15
14383;BME280;7275;50.328;8.720;2023-04-24T01:48:38;98440.78;;;17.21;48.03
14383;BME280;7275;50.328;8.720;2023-04-24T01:51:05;98432.91;;;17.20;48.17
14383;BME280;7275;50.328;8.720;2023-04-24T01:53:33;98425.88;;;17.19;48.30
14383;BME280;7275;50.328;8.720;2023-04-24T01:56:01;98442.03;;;17.17;48.18
14383;BME280;7275;50.328;8.720;2023-04-24T01:58:30;98437.78;;;17.15;48.30
14383;BME280;7275;50.328;8.720;2023-04-24T02:00:57;98439.63;;;17.14;48.21
14383;BME280;7275;50.328;8.720;2023-04-24T02:03:26;98442.28;;;17.14;48.21
14383;BME280;7275;50.328;8.720;2023-04-24T02:05:54;98442.16;;;17.16;48.23
14383;BME280;7275;50.328;8.720;2023-04-24T02:08:21;98448.59;;;17.13;48.14
14383;BME280;7275;50.328;8.720;2023-04-24T02:10:49;98443.97;;;17.15;48.10
14383;BME280;7275;50.328;8.720;2023-04-24T02:13:16;98446.78;;;17.14;48.22
14383;BME280;7275;50.328;8.720;2023-04-24T02:15:45;98439.72;;;17.13;48.13
14383;BME280;7275;50.328;8.720;2023-04-24T02:18:13;98431.72;;;17.13;48.21
14383;BME280;7275;50.328;8.720;2023-04-24T02:20:41;98437.06;;;17.13;48.37
14383;BME280;7275;50.328;8.720;2023-04-24T02:23:09;98431.00;;;17.11;48.33
14383;BME280;7275;50.328;8.720;2023-04-24T02:25:36;98426.78;;;17.08;48.63
14383;BME280;7275;50.328;8.720;2023-04-24T02:28:04;98439.28;;;17.08;48.42
14383;BME280;7275;50.328;8.720;2023-04-24T02:30:31;98439.28;;;17.08;48.50
14383;BME280;7275;50.328;8.720;2023-04-24T02:33:00;98442.69;;;17.10;48.52
14383;BME280;7275;50.328;8.720;2023-04-24T02:35:28;98439.00;;;17.11;48.46
14383;BME280;7275;50.328;8.720;2023-04-24T02:37:56;98445.34;;;17.10;48.35
14383;BME280;7275;50.328;8.720;2023-04-24T02:40:23;98445.22;;;17.11;48.38
14383;BME280;7275;50.328;8.720;2023-04-24T02:42:50;98454.22;;;17.10;48.52
14383;BME280;7275;50.328;8.720;2023-04-24T02:45:18;98452.50;;;17.09;48.35
14383;BME280;7275;50.328;8.720;2023-04-24T02:47:45;98439.16;;;17.09;48.53
14383;BME280;7275;50.328;8.720;2023-04-24T02:50:14;98432.25;;;17.07;48.65
14383;BME280;7275;50.328;8.720;2023-04-24T02:52:42;98431.78;;;17.02;48.61
14383;BME280;7275;50.328;8.720;2023-04-24T02:55:10;98416.88;;;16.99;48.82
14383;BME280;7275;50.328;8.720;2023-04-24T02:57:37;98426.13;;;16.95;48.78
14383;BME280;7275;50.328;8.720;2023-04-24T03:00:06;98426.50;;;16.91;48.85
14383;BME280;7275;50.328;8.720;2023-04-24T03:02:35;98432.06;;;16.88;48.89
14383;BME280;7275;50.328;8.720;2023-04-24T03:05:03;98428.81;;;16.84;48.77
14383;BME280;7275;50.328;8.720;2023-04-24T03:07:32;98435.53;;;16.78;48.89
14383;BME280;7275;50.328;8.720;2023-04-24T03:09:59;98435.03;;;16.73;49.01
14383;BME280;7275;50.328;8.720;2023-04-24T03:12:27;98426.59;;;16.68;49.13
14383;BME280;7275;50.328;8.720;2023-04-24T03:14:54;98431.31;;;16.65;48.99
14383;BME280;7275;50.328;8.720;2023-04-24T03:17:22;98446.88;;;16.60;49.19
14383;BME280;7275;50.328;8.720;2023-04-24T03:19:49;98441.91;;;16.55;49.36
14383;BME280;7275;50.328;8.720;2023-04-24T03:22:17;98439.59;;;16.51;49.30
14383;BME280;7275;50.328;8.720;2023-04-24T03:24:46;98438.25;;;16.45;49.50
14383;BME280;7275;50.328;8.720;2023-04-24T03:27:13;98435.69;;;16.44;49.39
14383;BME280;7275;50.328;8.720;2023-04-24T03:29:41;98443.81;;;16.42;49.53
14383;BME280;7275;50.328;8.720;2023-04-24T03:32:09;98450.16;;;16.41;49.65
14383;BME280;7275;50.328;8.720;2023-04-24T03:34:36;98442.25;;;16.40;49.58
14383;BME280;7275;50.328;8.720;2023-04-24T03:37:03;98442.25;;;16.40;49.58
14383;BME280;7275;50.328;8.720;2023-04-24T03:39:31;98444.09;;;16.39;49.41
14383;BME280;7275;50.328;8.720;2023-04-24T03:42:00;98450.38;;;16.38;49.24
14383;BME280;7275;50.328;8.720;2023-04-24T03:44:27;98465.53;;;16.38;49.37
14383;BME280;7275;50.328;8.720;2023-04-24T03:46:55;98463.00;;;16.36;48.98
14383;BME280;7275;50.328;8.720;2023-04-24T03:49:22;98465.66;;;16.36;48.90
14383;BME280;7275;50.328;8.720;2023-04-24T03:51:50;98475.47;;;16.36;48.51
14383;BME280;7275;50.328;8.720;2023-04-24T03:54:18;98471.97;;;16.35;48.76
14383;BME280;7275;50.328;8.720;2023-04-24T03:56:46;98471.00;;;16.36;48.64
14383;BME280;7275;50.328;8.720;2023-04-24T03:59:15;98475.47;;;16.36;48.63
14383;BME280;7275;50.328;8.720;2023-04-24T04:01:42;98481.78;;;16.35;48.58
14383;BME280;7275;50.328;8.720;2023-04-24T04:04:10;98480.22;;;16.32;48.39
14383;BME280;7275;50.328;8.720;2023-04-24T04:06:38;98495.50;;;16.30;48.40
14383;BME280;7275;50.328;8.720;2023-04-24T04:09:05;98480.84;;;16.25;48.32
14383;BME280;7275;50.328;8.720;2023-04-24T04:11:33;98485.69;;;16.20;48.17
14383;BME280;7275;50.328;8.720;2023-04-24T04:14:01;98497.56;;;16.16;48.09
14383;BME280;7275;50.328;8.720;2023-04-24T04:16:30;98504.09;;;16.12;48.11
14383;BME280;7275;50.328;8.720;2023-04-24T04:18:57;98506.28;;;16.07;47.94
14383;BME280;7275;50.328;8.720;2023-04-24T04:21:25;98504.81;;;16.02;47.91
14383;BME280;7275;50.328;8.720;2023-04-24T04:23:54;98506.16;;;15.97;47.90
14383;BME280;7275;50.328;8.720;2023-04-24T04:26:22;98509.03;;;15.94;47.94
14383;BME280;7275;50.328;8.720;2023-04-24T04:28:51;98510.25;;;15.90;47.75
14383;BME280;7275;50.328;8.720;2023-04-24T04:31:19;98514.97;;;15.86;47.63
14383;BME280;7275;50.328;8.720;2023-04-24T04:33:48;98513.41;;;15.84;47.55
14383;BME280;7275;50.328;8.720;2023-04-24T04:36:16;98518.97;;;15.81;47.50
14383;BME280;7275;50.328;8.720;2023-04-24T04:38:44;98517.41;;;15.78;47.55
14383;BME280;7275;50.328;8.720;2023-04-24T04:41:12;98516.66;;;15.76;47.34
14383;BME280;7275;50.328;8.720;2023-04-24T04:43:40;98523.94;;;15.74;47.47
14383;BME280;7275;50.328;8.720;2023-04-24T04:46:08;98525.97;;;15.71;47.22
14383;BME280;7275;50.328;8.720;2023-04-24T04:48:37;98520.75;;;15.69;47.24
14383;BME280;7275;50.328;8.720;2023-04-24T04:51:07;98530.69;;;15.67;47.07
14383;BME280;7275;50.328;8.720;2023-04-24T04:53:34;98532.75;;;15.64;47.03
14383;BME280;7275;50.328;8.720;2023-04-24T04:56:02;98533.81;;;15.61;46.98
14383;BME280;7275;50.328;8.720;2023-04-24T04:58:29;98534.91;;;15.59;47.13
14383;BME280;7275;50.328;8.720;2023-04-24T05:00:57;98526.06;;;15.58;46.98
14383;BME280;7275;50.328;8.720;2023-04-24T05:03:25;98532.25;;;15.59;46.92
14383;BME280;7275;50.328;8.720;2023-04-24T05:05:53;98541.94;;;15.60;46.93
14383;BME280;7275;50.328;8.720;2023-04-24T05:08:22;98545.34;;;15.62;46.91
14383;BME280;7275;50.328;8.720;2023-04-24T05:10:53;98548.72;;;15.64;46.85
14383;BME280;7275;50.328;8.720;2023-04-24T05:13:21;98553.06;;;15.65;46.79
14383;BME280;7275;50.328;8.720;2023-04-24T05:16:04;98561.06;;;15.65;46.62
14383;BME280;7275;50.328;8.720;2023-04-24T05:18:32;98558.19;;;15.68;46.66
14383;BME280;7275;50.328;8.720;2023-04-24T05:21:00;98556.13;;;15.71;46.72
14383;BME280;7275;50.328;8.720;2023-04-24T05:23:29;98558.44;;;15.76;46.70
14383;BME280;7275;50.328;8.720;2023-04-24T05:25:56;98565.97;;;15.82;46.59
14383;BME280;7275;50.328;8.720;2023-04-24T05:28:24;98559.69;;;15.83;46.49
14383;BME280;7275;50.328;8.720;2023-04-24T05:30:55;98560.28;;;15.86;46.28
14383;BME280;7275;50.328;8.720;2023-04-24T05:33:23;98564.63;;;15.87;46.24
14383;BME280;7275;50.328;8.720;2023-04-24T05:35:50;98572.41;;;15.90;45.95
14383;BME280;7275;50.328;8.720;2023-04-24T05:38:18;98568.66;;;15.93;45.64
14383;BME280;7275;50.328;8.720;2023-04-24T05:40:47;98560.19;;;15.99;45.60
14383;BME280;7275;50.328;8.720;2023-04-24T05:43:14;98560.69;;;16.04;45.43
14383;BME280;7275;50.328;8.720;2023-04-24T05:45:42;98573.56;;;16.10;45.13
14383;BME280;7275;50.328;8.720;2023-04-24T05:48:09;98579.34;;;16.15;45.11
14383;BME280;7275;50.328;8.720;2023-04-24T05:50:37;98583.38;;;16.21;44.64
14383;BME280;7275;50.328;8.720;2023-04-24T05:53:04;98585.78;;;16.24;44.38
14383;BME280;7275;50.328;8.720;2023-04-24T05:55:33;98585.44;;;16.28;44.43
14383;BME280;7275;50.328;8.720;2023-04-24T05:58:03;98585.94;;;16.33;44.13
14383;BME280;7275;50.328;8.720;2023-04-24T06:00:31;98592.59;;;16.39;44.04
14383;BME280;7275;50.328;8.720;2023-04-24T06:02:59;98602.78;;;16.45;43.70
14383;BME280;7275;50.328;8.720;2023-04-24T06:05:27;98606.47;;;16.55;43.96
14383;BME280;7275;50.328;8.720;2023-04-24T06:07:55;98600.63;;;16.61;43.84
14383;BME280;7275;50.328;8.720;2023-04-24T06:10:23;98607.56;;;16.63;43.61
14383;BME280;7275;50.328;8.720;2023-04-24T06:12:50;98603.94;;;16.64;43.53
14383;BME280;7275;50.328;8.720;2023-04-24T06:15:19;98611.94;;;16.64;43.42
14383;BME280;7275;50.328;8.720;2023-04-24T06:17:47;98612.03;;;16.63;43.48
14383;BME280;7275;50.328;8.720;2023-04-24T06:20:14;98622.97;;;16.60;43.52
14383;BME280;7275;50.328;8.720;2023-04-24T06:22:42;98635.66;;;16.56;43.35
14383;BME280;7275;50.328;8.720;2023-04-24T06:25:09;98624.41;;;16.53;43.26
14383;BME280;7275;50.328;8.720;2023-04-24T06:27:37;98622.00;;;16.50;43.40
14383;BME280;7275;50.328;8.720;2023-04-24T06:30:05;98620.25;;;16.49;43.28
14383;BME280;7275;50.328;8.720;2023-04-24T06:32:34;98611.38;;;16.48;43.53
14383;BME280;7275;50.328;8.720;2023-04-24T06:35:03;98607.91;;;16.48;43.41
14383;BME280;7275;50.328;8.720;2023-04-24T06:37:30;98616.84;;;16.47;43.44
14383;BME280;7275;50.328;8.720;2023-04-24T06:39:58;98623.81;;;16.49;43.20
14383;BME280;7275;50.328;8.720;2023-04-24T06:42:25;98616.66;;;16.50;43.09
14383;BME280;7275;50.328;8.720;2023-04-24T06:44:53;98640.53;;;16.51;43.39
14383;BME280;7275;50.328;8.720;2023-04-24T06:47:21;98616.41;;;16.53;43.35
14383;BME280;7275;50.328;8.720;2023-04-24T06:49:50;98621.50;;;16.56;43.31
14383;BME280;7275;50.328;8.720;2023-04-24T06:52:19;98634.59;;;16.59;43.35
14383;BME280;7275;50.328;8.720;2023-04-24T06:54:46;98632.56;;;16.62;43.35
14383;BME280;7275;50.328;8.720;2023-04-24T06:57:14;98619.81;;;16.66;42.99
14383;BME280;7275;50.328;8.720;2023-04-24T06:59:42;98623.06;;;16.69;42.89
14383;BME280;7275;50.328;8.720;2023-04-24T07:02:10;98625.38;;;16.74;42.78
14383;BME280;7275;50.328;8.720;2023-04-24T07:04:37;98628.28;;;16.82;43.20
14383;BME280;7275;50.328;8.720;2023-04-24T07:07:06;98624.75;;;16.93;43.03
14383;BME280;7275;50.328;8.720;2023-04-24T07:09:35;98630.19;;;17.02;42.94
14383;BME280;7275;50.328;8.720;2023-04-24T07:12:05;98618.06;;;17.09;42.74
14383;BME280;7275;50.328;8.720;2023-04-24T07:14:33;98622.53;;;17.20;43.10
14383;BME280;7275;50.328;8.720;2023-04-24T07:17:02;98621.53;;;17.32;42.85
14383;BME280;7275;50.328;8.720;2023-04-24T07:19:29;98621.03;;;17.38;42.48
14383;BME280;7275;50.328;8.720;2023-04-24T07:21:57;98620.78;;;17.41;42.13
14383;BME280;7275;50.328;8.720;2023-04-24T07:24:26;98617.00;;;17.43;42.22
14383;BME280;7275;50.328;8.720;2023-04-24T07:26:56;98617.59;;;17.47;42.16
14383;BME280;7275;50.328;8.720;2023-04-24T07:29:23;98611.78;;;17.53;42.07
14383;BME280;7275;50.328;8.720;2023-04-24T07:31:51;98614.78;;;17.60;41.82
14383;BME280;7275;50.328;8.720;2023-04-24T07:34:20;98617.81;;;17.66;42.11
14383;BME280;7275;50.328;8.720;2023-04-24T07:36:47;98611.81;;;17.74;41.61
14383;BME280;7275;50.328;8.720;2023-04-24T07:39:15;98608.91;;;17.77;41.70
14383;BME280;7275;50.328;8.720;2023-04-24T07:41:44;98604.13;;;17.80;41.63
14383;BME280;7275;50.328;8.720;2023-04-24T07:44:11;98602.91;;;17.84;41.43
14383;BME280;7275;50.328;8.720;2023-04-24T07:46:39;98620.38;;;17.88;41.47
14383;BME280;7275;50.328;8.720;2023-04-24T07:49:07;98602.84;;;17.95;41.43
14383;BME280;7275;50.328;8.720;2023-04-24T07:51:39;98612.44;;;17.98;41.38
14383;BME280;7275;50.328;8.720;2023-04-24T07:54:07;98598.53;;;18.04;41.48
14383;BME280;7275;50.328;8.720;2023-04-24T07:56:35;98613.78;;;18.13;41.21
14383;BME280;7275;50.328;8.720;2023-04-24T07:59:06;98613.00;;;18.22;41.23
14383;BME280;7275;50.328;8.720;2023-04-24T08:01:34;98627.19;;;18.33;40.89
14383;BME280;7275;50.328;8.720;2023-04-24T08:04:01;98616.66;;;18.42;40.70
14383;BME280;7275;50.328;8.720;2023-04-24T08:06:29;98624.75;;;18.51;41.13
14383;BME280;7275;50.328;8.720;2023-04-24T08:08:58;98635.25;;;18.64;40.91
14383;BME280;7275;50.328;8.720;2023-04-24T08:11:26;98643.91;;;18.77;40.49
14383;BME280;7275;50.328;8.720;2023-04-24T08:13:53;98637.47;;;18.89;40.11
14383;BME280;7275;50.328;8.720;2023-04-24T08:16:23;98645.13;;;19.03;40.14
14383;BME280;7275;50.328;8.720;2023-04-24T08:18:51;98643.63;;;19.10;40.25
14383;BME280;7275;50.328;8.720;2023-04-24T08:21:19;98648.69;;;19.13;39.69
14383;BME280;7275;50.328;8.720;2023-04-24T08:23:47;98642.66;;;19.21;39.95
14383;BME280;7275;50.328;8.720;2023-04-24T08:26:14;98641.97;;;19.28;39.97
14383;BME280;7275;50.328;8.720;2023-04-24T08:28:42;98668.13;;;19.36;39.79
14383;BME280;7275;50.328;8.720;2023-04-24T08:31:09;98641.75;;;19.41;39.95
14383;BME280;7275;50.328;8.720;2023-04-24T08:33:38;98651.50;;;19.51;39.69
14383;BME280;7275;50.328;8.720;2023-04-24T08:36:07;98656.31;;;19.57;39.59
14383;BME280;7275;50.328;8.720;2023-04-24T08:38:34;98652.81;;;19.66;39.25
14383;BME280;7275;50.328;8.720;2023-04-24T08:41:02;98665.94;;;19.79;39.23
14383;BME280;7275;50.328;8.720;2023-04-24T08:43:32;98654.22;;;19.89;39.03
14383;BME280;7275;50.328;8.720;2023-04-24T08:46:00;98659.59;;;19.89;38.80
14383;BME280;7275;50.328;8.720;2023-04-24T08:48:32;98665.22;;;19.86;38.95
14383;BME280;7275;50.328;8.720;2023-04-24T08:51:02;98669.03;;;19.84;38.72
14383;BME280;7275;50.328;8.720;2023-04-24T08:53:34;98675.81;;;19.78;38.48
14383;BME280;7275;50.328;8.720;2023-04-24T08:56:03;98672.13;;;19.70;38.20
14383;BME280;7275;50.328;8.720;2023-04-24T08:58:31;98681.16;;;19.59;38.15
14383;BME280;7275;50.328;8.720;2023-04-24T09:00:58;98690.28;;;19.47;38.07
14383;BME280;7275;50.328;8.720;2023-04-24T09:03:27;98685.03;;;19.36;37.96
14383;BME280;7275;50.328;8.720;2023-04-24T09:05:57;98682.16;;;19.28;38.06
14383;BME280;7275;50.328;8.720;2023-04-24T09:08:26;98696.97;;;19.23;38.04
14383;BME280;7275;50.328;8.720;2023-04-24T09:10:55;98707.94;;;19.20;38.03
14383;BME280;7275;50.328;8.720;2023-04-24T09:13:24;98707.63;;;19.13;38.15
14383;BME280;7275;50.328;8.720;2023-04-24T09:15:52;98697.34;;;19.08;37.98
14383;BME280;7275;50.328;8.720;2023-04-24T09:18:20;98705.78;;;19.04;38.12
14383;BME280;7275;50.328;8.720;2023-04-24T09:20:58;98714.22;;;18.99;38.16
14383;BME280;7275;50.328;8.720;2023-04-24T09:23:28;98705.31;;;18.99;37.86
14383;BME280;7275;50.328;8.720;2023-04-24T09:25:57;98700.25;;;18.96;38.23
14383;BME280;7275;50.328;8.720;2023-04-24T09:28:30;98705.72;;;18.94;38.12
14383;BME280;7275;50.328;8.720;2023-04-24T09:31:06;98721.06;;;18.92;38.49
14383;BME280;7275;50.328;8.720;2023-04-24T09:33:34;98715.47;;;18.95;38.47
14383;BME280;7275;50.328;8.720;2023-04-24T09:36:02;98707.03;;;19.00;38.90
14383;BME280;7275;50.328;8.720;2023-04-24T09:38:36;98706.50;;;19.06;38.72
14383;BME280;7275;50.328;8.720;2023-04-24T09:41:06;98719.34;;;19.12;38.77
14383;BME280;7275;50.328;8.720;2023-04-24T09:43:35;98727.00;;;19.17;38.70
14383;BME280;7275;50.328;8.720;2023-04-24T09:46:05;98735.41;;;19.12;38.34
14383;BME280;7275;50.328;8.720;2023-04-24T09:48:35;98727.06;;;19.05;38.34
14383;BME280;7275;50.328;8.720;2023-04-24T09:51:04;98730.13;;;19.01;38.52
14383;BME280;7275;50.328;8.720;2023-04-24T09:53:34;98752.97;;;18.95;38.55
14383;BME280;7275;50.328;8.720;2023-04-24T09:56:06;98752.63;;;18.89;38.65
14383;BME280;7275;50.328;8.720;2023-04-24T09:58:35;98747.94;;;18.81;38.52
14383;BME280;7275;50.328;8.720;2023-04-24T10:01:04;98785.56;;;18.80;38.69
14383;BME280;7275;50.328;8.720;2023-04-24T10:03:32;98754.47;;;18.88;38.76
14383;BME280;7275;50.328;8.720;2023-04-24T10:06:01;98749.34;;;19.06;38.49
14383;BME280;7275;50.328;8.720;2023-04-24T10:08:34;98742.84;;;19.29;38.52
14383;BME280;7275;50.328;8.720;2023-04-24T10:11:02;98754.38;;;19.50;38.57
14383;BME280;7275;50.328;8.720;2023-04-24T10:13:30;98753.88;;;19.75;38.39
14383;BME280;7275;50.328;8.720;2023-04-24T10:15:58;98746.88;;;20.13;37.91
14383;BME280;7275;50.328;8.720;2023-04-24T10:18:28;98749.47;;;20.33;37.73
14383;BME280;7275;50.328;8.720;2023-04-24T10:20:56;98768.09;;;20.54;37.39
14383;BME280;7275;50.328;8.720;2023-04-24T10:23:25;98768.22;;;20.81;37.41
14383;BME280;7275;50.328;8.720;2023-04-24T10:25:54;98775.16;;;21.39;37.00
14383;BME280;7275;50.328;8.720;2023-04-24T10:28:22;98763.41;;;21.95;37.03
14383;BME280;7275;50.328;8.720;2023-04-24T10:30:54;98763.31;;;22.67;36.29
14383;BME280;7275;50.328;8.720;2023-04-24T10:33:22;98763.88;;;22.96;36.14
14383;BME280;7275;50.328;8.720;2023-04-24T10:35:50;98762.88;;;23.23;35.52
14383;BME280;7275;50.328;8.720;2023-04-24T10:38:26;98766.31;;;23.33;34.97
14383;BME280;7275;50.328;8.720;2023-04-24T10:41:07;98771.34;;;23.28;34.73
14383;BME280;7275;50.328;8.720;2023-04-24T10:43:35;98789.59;;;23.34;34.88
14383;BME280;7275;50.328;8.720;2023-04-24T10:46:04;98775.69;;;23.46;34.91
14383;BME280;7275;50.328;8.720;2023-04-24T10:48:33;98768.03;;;23.67;34.47
14383;BME280;7275;50.328;8.720;2023-04-24T10:51:01;98774.53;;;23.91;34.79
14383;BME280;7275;50.328;8.720;2023-04-24T10:53:30;98784.75;;;24.13;34.53
14383;BME280;7275;50.328;8.720;2023-04-24T10:56:02;98778.03;;;24.33;34.31
14383;BME280;7275;50.328;8.720;2023-04-24T10:58:38;98779.25;;;24.38;34.26
14383;BME280;7275;50.328;8.720;2023-04-24T11:01:06;98784.09;;;24.35;33.73
14383;BME280;7275;50.328;8.720;2023-04-24T11:03:35;98791.34;;;24.18;34.31
14383;BME280;7275;50.328;8.720;2023-04-24T11:06:05;98795.78;;;23.94;33.85
14383;BME280;7275;50.328;8.720;2023-04-24T11:08:37;98800.03;;;23.62;34.16
14383;BME280;7275;50.328;8.720;2023-04-24T11:11:11;98813.13;;;23.24;34.61
14383;BME280;7275;50.328;8.720;2023-04-24T11:14:04;98833.22;;;22.68;35.00
14383;BME280;7275;50.328;8.720;2023-04-24T11:16:34;98834.38;;;22.21;35.09
14383;BME280;7275;50.328;8.720;2023-04-24T11:19:06;98846.94;;;21.76;35.93
14383;BME280;7275;50.328;8.720;2023-04-24T11:21:41;98865.03;;;21.37;36.18
14383;BME280;7275;50.328;8.720;2023-04-24T11:24:23;98864.53;;;21.05;36.96
14383;BME280;7275;50.328;8.720;2023-04-24T11:26:53;98849.66;;;20.82;36.73
14383;BME280;7275;50.328;8.720;2023-04-24T11:29:21;98833.66;;;20.51;36.84
14383;BME280;7275;50.328;8.720;2023-04-24T11:31:50;98846.66;;;20.27;37.21
14383;BME280;7275;50.328;8.720;2023-04-24T11:34:18;98856.16;;;20.60;37.87
14383;BME280;7275;50.328;8.720;2023-04-24T11:36:46;98848.13;;;21.54;38.11
14383;BME280;7275;50.328;8.720;2023-04-24T11:39:14;98844.78;;;22.34;37.66
14383;BME280;7275;50.328;8.720;2023-04-24T11:41:42;98847.94;;;23.35;36.98
14383;BME280;7275;50.328;8.720;2023-04-24T11:44:11;98839.84;;;24.36;36.46
14383;BME280;7275;50.328;8.720;2023-04-24T11:46:41;98849.25;;;25.38;35.62
14383;BME280;7275;50.328;8.720;2023-04-24T11:49:09;98856.38;;;26.02;34.39
14383;BME280;7275;50.328;8.720;2023-04-24T11:51:37;98860.97;;;26.09;34.00
14383;BME280;7275;50.328;8.720;2023-04-24T11:54:19;98874.63;;;25.53;33.80
14383;BME280;7275;50.328;8.720;2023-04-24T11:56:46;98870.03;;;24.81;34.01
14383;BME280;7275;50.328;8.720;2023-04-24T11:59:15;98867.34;;;24.31;34.82
14383;BME280;7275;50.328;8.720;2023-04-24T12:01:43;98880.81;;;24.15;34.68
14383;BME280;7275;50.328;8.720;2023-04-24T12:04:12;98866.69;;;23.96;34.61
14383;BME280;7275;50.328;8.720;2023-04-24T12:06:40;98864.06;;;24.12;34.93
14383;BME280;7275;50.328;8.720;2023-04-24T12:09:08;98854.06;;;24.46;34.73
14383;BME280;7275;50.328;8.720;2023-04-24T12:11:52;98866.16;;;25.08;34.85
14383;BME280;7275;50.328;8.720;2023-04-24T12:14:21;98867.19;;;25.15;34.60
14383;BME280;7275;50.328;8.720;2023-04-24T12:16:50;98861.41;;;25.10;34.33
14383;BME280;7275;50.328;8.720;2023-04-24T12:19:21;98868.53;;;25.11;34.11
14383;BME280;7275;50.328;8.720;2023-04-24T12:22:01;98861.75;;;25.39;34.52
14383;BME280;7275;50.328;8.720;2023-04-24T12:24:29;98859.31;;;25.84;33.98
14383;BME280;7275;50.328;8.720;2023-04-24T12:26:57;98851.22;;;26.23;33.48
14383;BME280;7275;50.328;8.720;2023-04-24T12:29:26;98850.56;;;26.52;33.22
14383;BME280;7275;50.328;8.720;2023-04-24T12:31:54;98859.88;;;26.57;32.42
14383;BME280;7275;50.328;8.720;2023-04-24T12:34:23;98849.13;;;26.33;32.78
14383;BME280;7275;50.328;8.720;2023-04-24T12:36:51;98866.34;;;26.18;32.70
14383;BME280;7275;50.328;8.720;2023-04-24T12:39:20;98869.25;;;26.00;32.33
14383;BME280;7275;50.328;8.720;2023-04-24T12:41:50;98867.13;;;25.71;32.43
14383;BME280;7275;50.328;8.720;2023-04-24T12:44:30;98873.09;;;25.34;32.36
14383;BME280;7275;50.328;8.720;2023-04-24T12:46:58;98874.44;;;24.90;32.61
14383;BME280;7275;50.328;8.720;2023-04-24T12:49:26;98894.09;;;24.42;32.73
14383;BME280;7275;50.328;8.720;2023-04-24T12:51:53;98905.97;;;23.90;32.69
14383;BME280;7275;50.328;8.720;2023-04-24T12:54:21;98906.88;;;23.30;33.45
14383;BME280;7275;50.328;8.720;2023-04-24T12:56:49;98930.75;;;22.72;33.81
14383;BME280;7275;50.328;8.720;2023-04-24T12:59:16;98945.94;;;22.18;34.76
14383;BME280;7275;50.328;8.720;2023-04-24T13:01:45;98940.09;;;21.77;34.98
14383;BME280;7275;50.328;8.720;2023-04-24T13:04:13;98943.72;;;21.48;35.45
14383;BME280;7275;50.328;8.720;2023-04-24T13:06:41;98936.78;;;21.46;36.29
14383;BME280;7275;50.328;8.720;2023-04-24T13:09:09;98929.16;;;22.24;36.60
14383;BME280;7275;50.328;8.720;2023-04-24T13:11:37;98913.22;;;23.64;35.92
14383;BME280;7275;50.328;8.720;2023-04-24T13:14:04;98899.97;;;24.96;34.55
14383;BME280;7275;50.328;8.720;2023-04-24T13:16:31;98915.13;;;26.18;33.34
14383;BME280;7275;50.328;8.720;2023-04-24T13:19:00;98893.78;;;27.29;32.26